sensor_id;sensor_type;location;lat;lon;timestamp;P1;P2;P0
61592;PMS5003;47485;51.378;-1.342;2022-10-23T00:00:49;7;7;
61592;PMS5003;47485;51.378;-1.342;2022-10-23T00:03:16;4;4;
61592;PMS5003;47485;51.378;-1.342;2022-10-23T00:05:43;10;6;
61592;PMS5003;47485;51.378;-1.342;2022-10-23T00:08:11;7;5;
61592;PMS5003;47485;51.378;-1.342;2022-10-23T00:10:39;7;6;
61592;PMS5003;47485;51.378;-1.342;2022-10-23T00:13:07;5;5;
61592;PMS5003;47485;51.378;-1.342;2022-10-23T00:15:35;4;4;
61592;PMS5003;47485;51.378;-1.342;2022-10-23T00:18:03;6;5;
61592;PMS5003;47485;51.378;-1.342;2022-10-23T00:20:29;9;6;
61592;PMS5003;47485;51.378;-1.342;2022-10-23T00:22:55;10;8;
61592;PMS5003;47485;51.378;-1.342;2022-10-23T00:25:22;7;5;
61592;PMS5003;47485;51.378;-1.342;2022-10-23T00:27:49;11;9;
61592;PMS5003;47485;51.378;-1.342;2022-10-23T00:30:16;11;9;
61592;PMS5003;47485;51.378;-1.342;2022-10-23T00:32:43;7;6;
61592;PMS5003;47485;51.378;-1.342;2022-10-23T00:35:10;12;11;
61592;PMS5003;47485;51.378;-1.342;2022-10-23T00:37:37;11;10;
61592;PMS5003;47485;51.378;-1.342;2022-10-23T00:40:05;8;7;
61592;PMS5003;47485;51.378;-1.342;2022-10-23T00:42:34;11;9;
61592;PMS5003;47485;51.378;-1.342;2022-10-23T00:45:21;11;11;
61592;PMS5003;47485;51.378;-1.342;2022-10-23T00:47:51;12;9;
61592;PMS5003;47485;51.378;-1.342;2022-10-23T00:50:20;8;7;
61592;PMS5003;47485;51.378;-1.342;2022-10-23T00:52:50;7;7;
61592;PMS5003;47485;51.378;-1.342;2022-10-23T00:55:20;8;6;
61592;PMS5003;47485;51.378;-1.342;2022-10-23T00:57:49;11;10;
61592;PMS5003;47485;51.378;-1.342;2022-10-23T01:00:19;7;7;
61592;PMS5003;47485;51.378;-1.342;2022-10-23T01:02:49;16;9;
61592;PMS5003;47485;51.378;-1.342;2022-10-23T01:05:17;10;8;
61592;PMS5003;47485;51.378;-1.342;2022-10-23T01:07:48;11;11;
61592;PMS5003;47485;51.378;-1.342;2022-10-23T01:10:22;11;8;
61592;PMS5003;47485;51.378;-1.342;2022-10-23T01:13:00;10;10;
61592;PMS5003;47485;51.378;-1.342;2022-10-23T01:15:33;14;13;
61592;PMS5003;47485;51.378;-1.342;2022-10-23T01:18:07;8;8;
61592;PMS5003;47485;51.378;-1.342;2022-10-23T01:20:41;9;8;
61592;PMS5003;47485;51.378;-1.342;2022-10-23T01:23:17;12;11;
61592;PMS5003;47485;51.378;-1.342;2022-10-23T01:25:58;15;11;
61592;PMS5003;47485;51.378;-1.342;2022-10-23T01:28:35;10;10;
61592;PMS5003;47485;51.378;-1.342;2022-10-23T01:31:11;13;9;
61592;PMS5003;47485;51.378;-1.342;2022-10-23T01:33:47;8;7;
61592;PMS5003;47485;51.378;-1.342;2022-10-23T01:36:18;11;10;
61592;PMS5003;47485;51.378;-1.342;2022-10-23T01:38:51;11;9;
61592;PMS5003;47485;51.378;-1.342;2022-10-23T01:41:23;10;9;
61592;PMS5003;47485;51.378;-1.342;2022-10-23T01:43:55;10;8;
61592;PMS5003;47485;51.378;-1.342;2022-10-23T01:46:28;9;9;
61592;PMS5003;47485;51.378;-1.342;2022-10-23T01:48:56;11;9;
61592;PMS5003;47485;51.378;-1.342;2022-10-23T01:51:26;13;11;
61592;PMS5003;47485;51.378;-1.342;2022-10-23T01:53:55;9;8;
61592;PMS5003;47485;51.378;-1.342;2022-10-23T01:56:26;11;9;
61592;PMS5003;47485;51.378;-1.342;2022-10-23T01:58:58;15;12;
61592;PMS5003;47485;51.378;-1.342;2022-10-23T02:01:28;12;8;
61592;PMS5003;47485;51.378;-1.342;2022-10-23T02:03:57;11;9;
61592;PMS5003;47485;51.378;-1.342;2022-10-23T02:06:26;10;9;
61592;PMS5003;47485;51.378;-1.342;2022-10-23T02:08:53;12;8;
61592;PMS5003;47485;51.378;-1.342;2022-10-23T02:11:21;11;10;
61592;PMS5003;47485;51.378;-1.342;2022-10-23T02:13:49;12;12;
61592;PMS5003;47485;51.378;-1.342;2022-10-23T02:16:23;12;9;
61592;PMS5003;47485;51.378;-1.342;2022-10-23T02:18:58;7;7;
61592;PMS5003;47485;51.378;-1.342;2022-10-23T02:21:36;13;8;
61592;PMS5003;47485;51.378;-1.342;2022-10-23T02:24:10;16;14;
61592;PMS5003;47485;51.378;-1.342;2022-10-23T02:26:39;18;17;
61592;PMS5003;47485;51.378;-1.342;2022-10-23T02:29:09;12;9;
61592;PMS5003;47485;51.378;-1.342;2022-10-23T02:31:42;10;10;
61592;PMS5003;47485;51.378;-1.342;2022-10-23T02:34:09;9;9;
61592;PMS5003;47485;51.378;-1.342;2022-10-23T02:36:37;9;8;
61592;PMS5003;47485;51.378;-1.342;2022-10-23T02:39:04;8;7;
61592;PMS5003;47485;51.378;-1.342;2022-10-23T02:41:34;13;10;
61592;PMS5003;47485;51.378;-1.342;2022-10-23T02:44:09;12;11;
61592;PMS5003;47485;51.378;-1.342;2022-10-23T02:46:49;15;11;
61592;PMS5003;47485;51.378;-1.342;2022-10-23T02:49:24;9;9;
61592;PMS5003;47485;51.378;-1.342;2022-10-23T02:52:02;11;9;
61592;PMS5003;47485;51.378;-1.342;2022-10-23T02:54:41;12;11;
61592;PMS5003;47485;51.378;-1.342;2022-10-23T02:57:18;12;9;
61592;PMS5003;47485;51.378;-1.342;2022-10-23T02:59:56;12;7;
61592;PMS5003;47485;51.378;-1.342;2022-10-23T03:02:30;10;9;
61592;PMS5003;47485;51.378;-1.342;2022-10-23T03:05:09;8;7;
61592;PMS5003;47485;51.378;-1.342;2022-10-23T03:07:41;8;8;
61592;PMS5003;47485;51.378;-1.342;2022-10-23T03:10:10;10;9;
61592;PMS5003;47485;51.378;-1.342;2022-10-23T03:12:37;13;9;
61592;PMS5003;47485;51.378;-1.342;2022-10-23T03:15:05;10;9;
61592;PMS5003;47485;51.378;-1.342;2022-10-23T03:17:33;12;9;
61592;PMS5003;47485;51.378;-1.342;2022-10-23T03:20:00;11;10;
61592;PMS5003;47485;51.378;-1.342;2022-10-23T03:22:26;12;10;
61592;PMS5003;47485;51.378;-1.342;2022-10-23T03:24:53;8;5;
61592;PMS5003;47485;51.378;-1.342;2022-10-23T03:27:20;8;8;
61592;PMS5003;47485;51.378;-1.342;2022-10-23T03:29:46;12;10;
61592;PMS5003;47485;51.378;-1.342;2022-10-23T03:32:13;7;7;
61592;PMS5003;47485;51.378;-1.342;2022-10-23T03:34:40;10;9;
61592;PMS5003;47485;51.378;-1.342;2022-10-23T03:37:08;9;7;
61592;PMS5003;47485;51.378;-1.342;2022-10-23T03:39:35;12;9;
61592;PMS5003;47485;51.378;-1.342;2022-10-23T03:42:03;8;7;
61592;PMS5003;47485;51.378;-1.342;2022-10-23T03:44:30;9;9;
61592;PMS5003;47485;51.378;-1.342;2022-10-23T03:46:57;12;10;
61592;PMS5003;47485;51.378;-1.342;2022-10-23T03:49:24;8;7;
61592;PMS5003;47485;51.378;-1.342;2022-10-23T03:51:51;8;8;
61592;PMS5003;47485;51.378;-1.342;2022-10-23T03:54:23;9;7;
61592;PMS5003;47485;51.378;-1.342;2022-10-23T03:56:51;10;7;
61592;PMS5003;47485;51.378;-1.342;2022-10-23T03:59:19;7;7;
61592;PMS5003;47485;51.378;-1.342;2022-10-23T04:01:46;6;6;
61592;PMS5003;47485;51.378;-1.342;2022-10-23T04:04:13;7;7;
61592;PMS5003;47485;51.378;-1.342;2022-10-23T04:06:39;12;8;
61592;PMS5003;47485;51.378;-1.342;2022-10-23T04:09:06;8;7;
61592;PMS5003;47485;51.378;-1.342;2022-10-23T04:11:33;12;8;
61592;PMS5003;47485;51.378;-1.342;2022-10-23T04:13:59;8;5;
61592;PMS5003;47485;51.378;-1.342;2022-10-23T04:16:26;7;6;
61592;PMS5003;47485;51.378;-1.342;2022-10-23T04:18:53;7;6;
61592;PMS5003;47485;51.378;-1.342;2022-10-23T04:21:20;10;7;
61592;PMS5003;47485;51.378;-1.342;2022-10-23T04:23:46;7;5;
61592;PMS5003;47485;51.378;-1.342;2022-10-23T04:26:13;6;6;
61592;PMS5003;47485;51.378;-1.342;2022-10-23T04:28:40;14;12;
61592;PMS5003;47485;51.378;-1.342;2022-10-23T04:31:07;8;8;
61592;PMS5003;47485;51.378;-1.342;2022-10-23T04:33:33;11;11;
61592;PMS5003;47485;51.378;-1.342;2022-10-23T04:36:00;7;6;
61592;PMS5003;47485;51.378;-1.342;2022-10-23T04:38:27;7;6;
61592;PMS5003;47485;51.378;-1.342;2022-10-23T04:40:53;7;7;
61592;PMS5003;47485;51.378;-1.342;2022-10-23T04:43:20;9;7;
61592;PMS5003;47485;51.378;-1.342;2022-10-23T04:45:47;8;5;
61592;PMS5003;47485;51.378;-1.342;2022-10-23T04:48:15;4;4;
61592;PMS5003;47485;51.378;-1.342;2022-10-23T04:50:41;5;5;
61592;PMS5003;47485;51.378;-1.342;2022-10-23T04:53:08;4;4;
61592;PMS5003;47485;51.378;-1.342;2022-10-23T04:55:35;5;5;
61592;PMS5003;47485;51.378;-1.342;2022-10-23T04:58:01;7;6;
61592;PMS5003;47485;51.378;-1.342;2022-10-23T05:00:28;5;5;
61592;PMS5003;47485;51.378;-1.342;2022-10-23T05:02:55;5;4;
61592;PMS5003;47485;51.378;-1.342;2022-10-23T05:05:22;6;6;
61592;PMS5003;47485;51.378;-1.342;2022-10-23T05:07:48;6;5;
61592;PMS5003;47485;51.378;-1.342;2022-10-23T05:10:15;4;4;
61592;PMS5003;47485;51.378;-1.342;2022-10-23T05:12:41;6;4;
61592;PMS5003;47485;51.378;-1.342;2022-10-23T05:15:08;6;4;
61592;PMS5003;47485;51.378;-1.342;2022-10-23T05:17:36;7;5;
61592;PMS5003;47485;51.378;-1.342;2022-10-23T05:20:09;5;3;
61592;PMS5003;47485;51.378;-1.342;2022-10-23T05:22:41;6;5;
61592;PMS5003;47485;51.378;-1.342;2022-10-23T05:25:10;8;6;
61592;PMS5003;47485;51.378;-1.342;2022-10-23T05:27:38;4;4;
61592;PMS5003;47485;51.378;-1.342;2022-10-23T05:30:05;6;5;
61592;PMS5003;47485;51.378;-1.342;2022-10-23T05:32:32;9;5;
61592;PMS5003;47485;51.378;-1.342;2022-10-23T05:35:02;2;2;
61592;PMS5003;47485;51.378;-1.342;2022-10-23T05:37:32;3;3;
61592;PMS5003;47485;51.378;-1.342;2022-10-23T05:39:59;6;5;
61592;PMS5003;47485;51.378;-1.342;2022-10-23T05:42:26;7;4;
61592;PMS5003;47485;51.378;-1.342;2022-10-23T05:44:52;6;6;
61592;PMS5003;47485;51.378;-1.342;2022-10-23T05:47:19;4;4;
61592;PMS5003;47485;51.378;-1.342;2022-10-23T05:49:46;10;5;
61592;PMS5003;47485;51.378;-1.342;2022-10-23T05:52:13;6;5;
61592;PMS5003;47485;51.378;-1.342;2022-10-23T05:54:39;3;2;
61592;PMS5003;47485;51.378;-1.342;2022-10-23T05:57:06;4;4;
61592;PMS5003;47485;51.378;-1.342;2022-10-23T05:59:33;5;4;
61592;PMS5003;47485;51.378;-1.342;2022-10-23T06:01:59;6;5;
61592;PMS5003;47485;51.378;-1.342;2022-10-23T06:04:26;3;3;
61592;PMS5003;47485;51.378;-1.342;2022-10-23T06:06:53;3;2;
61592;PMS5003;47485;51.378;-1.342;2022-10-23T06:09:20;8;4;
61592;PMS5003;47485;51.378;-1.342;2022-10-23T06:11:46;3;3;
61592;PMS5003;47485;51.378;-1.342;2022-10-23T06:14:13;3;3;
61592;PMS5003;47485;51.378;-1.342;2022-10-23T06:16:40;4;4;
61592;PMS5003;47485;51.378;-1.342;2022-10-23T06:19:08;3;3;
61592;PMS5003;47485;51.378;-1.342;2022-10-23T06:21:35;3;3;
61592;PMS5003;47485;51.378;-1.342;2022-10-23T06:24:03;5;4;
61592;PMS5003;47485;51.378;-1.342;2022-10-23T06:26:30;6;3;
61592;PMS5003;47485;51.378;-1.342;2022-10-23T06:28:57;4;4;
61592;PMS5003;47485;51.378;-1.342;2022-10-23T06:31:23;5;3;
61592;PMS5003;47485;51.378;-1.342;2022-10-23T06:33:50;2;2;
61592;PMS5003;47485;51.378;-1.342;2022-10-23T06:36:17;6;3;
61592;PMS5003;47485;51.378;-1.342;2022-10-23T06:38:43;6;4;
61592;PMS5003;47485;51.378;-1.342;2022-10-23T06:41:12;2;2;
61592;PMS5003;47485;51.378;-1.342;2022-10-23T06:43:41;8;5;
61592;PMS5003;47485;51.378;-1.342;2022-10-23T06:46:07;6;4;
61592;PMS5003;47485;51.378;-1.342;2022-10-23T06:48:34;4;4;
61592;PMS5003;47485;51.378;-1.342;2022-10-23T06:51:03;3;3;
61592;PMS5003;47485;51.378;-1.342;2022-10-23T06:53:31;4;4;
61592;PMS5003;47485;51.378;-1.342;2022-10-23T06:55:57;5;4;
61592;PMS5003;47485;51.378;-1.342;2022-10-23T06:58:30;2;2;
61592;PMS5003;47485;51.378;-1.342;2022-10-23T07:00:58;5;3;
61592;PMS5003;47485;51.378;-1.342;2022-10-23T07:03:25;4;3;
61592;PMS5003;47485;51.378;-1.342;2022-10-23T07:05:52;4;3;
61592;PMS5003;47485;51.378;-1.342;2022-10-23T07:08:19;4;3;
61592;PMS5003;47485;51.378;-1.342;2022-10-23T07:10:47;4;4;
61592;PMS5003;47485;51.378;-1.342;2022-10-23T07:13:14;5;3;
61592;PMS5003;47485;51.378;-1.342;2022-10-23T07:15:41;4;3;
61592;PMS5003;47485;51.378;-1.342;2022-10-23T07:18:07;3;3;
61592;PMS5003;47485;51.378;-1.342;2022-10-23T07:20:34;5;5;
61592;PMS5003;47485;51.378;-1.342;2022-10-23T07:23:01;7;6;
61592;PMS5003;47485;51.378;-1.342;2022-10-23T07:25:28;3;2;
61592;PMS5003;47485;51.378;-1.342;2022-10-23T07:27:54;4;3;
61592;PMS5003;47485;51.378;-1.342;2022-10-23T07:30:21;3;3;
61592;PMS5003;47485;51.378;-1.342;2022-10-23T07:32:48;6;3;
61592;PMS5003;47485;51.378;-1.342;2022-10-23T07:35:15;2;2;
61592;PMS5003;47485;51.378;-1.342;2022-10-23T07:37:42;3;2;
61592;PMS5003;47485;51.378;-1.342;2022-10-23T07:40:10;3;3;
61592;PMS5003;47485;51.378;-1.342;2022-10-23T07:42:37;3;3;
61592;PMS5003;47485;51.378;-1.342;2022-10-23T07:45:04;2;1;
61592;PMS5003;47485;51.378;-1.342;2022-10-23T07:47:31;4;4;
61592;PMS5003;47485;51.378;-1.342;2022-10-23T07:49:58;2;2;
61592;PMS5003;47485;51.378;-1.342;2022-10-23T07:52:25;4;3;
61592;PMS5003;47485;51.378;-1.342;2022-10-23T07:54:52;3;3;
61592;PMS5003;47485;51.378;-1.342;2022-10-23T07:57:19;5;3;
61592;PMS5003;47485;51.378;-1.342;2022-10-23T07:59:46;1;1;
61592;PMS5003;47485;51.378;-1.342;2022-10-23T08:02:13;2;2;
61592;PMS5003;47485;51.378;-1.342;2022-10-23T08:04:41;3;3;
61592;PMS5003;47485;51.378;-1.342;2022-10-23T08:07:08;5;5;
61592;PMS5003;47485;51.378;-1.342;2022-10-23T08:09:34;2;2;
61592;PMS5003;47485;51.378;-1.342;2022-10-23T08:12:01;4;4;
61592;PMS5003;47485;51.378;-1.342;2022-10-23T08:14:28;1;1;
61592;PMS5003;47485;51.378;-1.342;2022-10-23T08:16:54;2;2;
61592;PMS5003;47485;51.378;-1.342;2022-10-23T08:19:21;6;2;
61592;PMS5003;47485;51.378;-1.342;2022-10-23T08:21:48;3;3;
61592;PMS5003;47485;51.378;-1.342;2022-10-23T08:24:14;3;2;
61592;PMS5003;47485;51.378;-1.342;2022-10-23T08:26:41;5;2;
61592;PMS5003;47485;51.378;-1.342;2022-10-23T08:29:08;7;6;
61592;PMS5003;47485;51.378;-1.342;2022-10-23T08:31:35;4;3;
61592;PMS5003;47485;51.378;-1.342;2022-10-23T08:34:02;3;3;
61592;PMS5003;47485;51.378;-1.342;2022-10-23T08:36:29;5;3;
61592;PMS5003;47485;51.378;-1.342;2022-10-23T08:38:57;3;2;
61592;PMS5003;47485;51.378;-1.342;2022-10-23T08:41:26;1;1;
61592;PMS5003;47485;51.378;-1.342;2022-10-23T08:43:59;3;3;
61592;PMS5003;47485;51.378;-1.342;2022-10-23T08:46:34;1;1;
61592;PMS5003;47485;51.378;-1.342;2022-10-23T08:49:08;2;2;
61592;PMS5003;47485;51.378;-1.342;2022-10-23T08:51:46;1;1;
61592;PMS5003;47485;51.378;-1.342;2022-10-23T08:54:18;4;3;
61592;PMS5003;47485;51.378;-1.342;2022-10-23T08:56:48;3;1;
61592;PMS5003;47485;51.378;-1.342;2022-10-23T08:59:21;2;2;
61592;PMS5003;47485;51.378;-1.342;2022-10-23T09:01:54;3;3;
61592;PMS5003;47485;51.378;-1.342;2022-10-23T09:04:26;4;2;
61592;PMS5003;47485;51.378;-1.342;2022-10-23T09:06:55;1;1;
61592;PMS5003;47485;51.378;-1.342;2022-10-23T09:09:36;2;2;
61592;PMS5003;47485;51.378;-1.342;2022-10-23T09:12:21;7;4;
61592;PMS5003;47485;51.378;-1.342;2022-10-23T09:14:53;6;4;
61592;PMS5003;47485;51.378;-1.342;2022-10-23T09:17:26;5;4;
61592;PMS5003;47485;51.378;-1.342;2022-10-23T09:19:58;7;7;
61592;PMS5003;47485;51.378;-1.342;2022-10-23T09:22:30;6;6;
61592;PMS5003;47485;51.378;-1.342;2022-10-23T09:24:57;9;6;
61592;PMS5003;47485;51.378;-1.342;2022-10-23T09:27:24;6;4;
61592;PMS5003;47485;51.378;-1.342;2022-10-23T09:29:51;5;5;
61592;PMS5003;47485;51.378;-1.342;2022-10-23T09:32:19;7;4;
61592;PMS5003;47485;51.378;-1.342;2022-10-23T09:34:59;3;3;
61592;PMS5003;47485;51.378;-1.342;2022-10-23T09:37:26;5;5;
61592;PMS5003;47485;51.378;-1.342;2022-10-23T09:40:10;4;3;
61592;PMS5003;47485;51.378;-1.342;2022-10-23T09:42:50;1;1;
61592;PMS5003;47485;51.378;-1.342;2022-10-23T09:45:22;2;1;
61592;PMS5003;47485;51.378;-1.342;2022-10-23T09:48:01;2;2;
61592;PMS5003;47485;51.378;-1.342;2022-10-23T09:50:29;3;3;
61592;PMS5003;47485;51.378;-1.342;2022-10-23T09:52:56;3;3;
61592;PMS5003;47485;51.378;-1.342;2022-10-23T09:55:24;3;3;
61592;PMS5003;47485;51.378;-1.342;2022-10-23T09:57:52;1;1;
61592;PMS5003;47485;51.378;-1.342;2022-10-23T10:00:21;2;2;
61592;PMS5003;47485;51.378;-1.342;2022-10-23T10:02:54;2;1;
61592;PMS5003;47485;51.378;-1.342;2022-10-23T10:05:23;2;2;
61592;PMS5003;47485;51.378;-1.342;2022-10-23T10:07:53;2;1;
61592;PMS5003;47485;51.378;-1.342;2022-10-23T10:10:22;1;1;
61592;PMS5003;47485;51.378;-1.342;2022-10-23T10:12:49;2;2;
61592;PMS5003;47485;51.378;-1.342;2022-10-23T10:15:22;2;2;
61592;PMS5003;47485;51.378;-1.342;2022-10-23T10:17:58;3;0;
61592;PMS5003;47485;51.378;-1.342;2022-10-23T10:20:38;2;0;
61592;PMS5003;47485;51.378;-1.342;2022-10-23T10:23:17;1;1;
61592;PMS5003;47485;51.378;-1.342;2022-10-23T10:25:52;1;1;
61592;PMS5003;47485;51.378;-1.342;2022-10-23T10:28:30;3;0;
61592;PMS5003;47485;51.378;-1.342;2022-10-23T10:31:14;2;2;
61592;PMS5003;47485;51.378;-1.342;2022-10-23T10:33:52;2;2;
61592;PMS5003;47485;51.378;-1.342;2022-10-23T10:36:28;1;1;
61592;PMS5003;47485;51.378;-1.342;2022-10-23T10:39:10;0;0;
61592;PMS5003;47485;51.378;-1.342;2022-10-23T10:41:49;1;1;
61592;PMS5003;47485;51.378;-1.342;2022-10-23T10:44:31;1;1;
61592;PMS5003;47485;51.378;-1.342;2022-10-23T10:47:12;1;1;
61592;PMS5003;47485;51.378;-1.342;2022-10-23T10:49:46;1;1;
61592;PMS5003;47485;51.378;-1.342;2022-10-23T10:52:21;1;1;
61592;PMS5003;47485;51.378;-1.342;2022-10-23T10:54:57;0;0;
61592;PMS5003;47485;51.378;-1.342;2022-10-23T10:57:36;0;0;
61592;PMS5003;47485;51.378;-1.342;2022-10-23T11:00:12;0;0;
61592;PMS5003;47485;51.378;-1.342;2022-10-23T11:02:42;0;0;
61592;PMS5003;47485;51.378;-1.342;2022-10-23T11:05:15;0;0;
61592;PMS5003;47485;51.378;-1.342;2022-10-23T11:07:51;0;0;
61592;PMS5003;47485;51.378;-1.342;2022-10-23T11:10:20;1;0;
61592;PMS5003;47485;51.378;-1.342;2022-10-23T11:12:48;1;0;
61592;PMS5003;47485;51.378;-1.342;2022-10-23T11:15:18;0;0;
61592;PMS5003;47485;51.378;-1.342;2022-10-23T11:17:49;0;0;
61592;PMS5003;47485;51.378;-1.342;2022-10-23T11:20:24;1;0;
61592;PMS5003;47485;51.378;-1.342;2022-10-23T11:23:07;1;0;
61592;PMS5003;47485;51.378;-1.342;2022-10-23T11:25:57;0;0;
61592;PMS5003;47485;51.378;-1.342;2022-10-23T11:28:36;0;0;
61592;PMS5003;47485;51.378;-1.342;2022-10-23T11:31:17;0;0;
61592;PMS5003;47485;51.378;-1.342;2022-10-23T11:36:10;0;0;
61592;PMS5003;47485;51.378;-1.342;2022-10-23T11:38:42;1;0;
61592;PMS5003;47485;51.378;-1.342;2022-10-23T11:41:20;0;0;
61592;PMS5003;47485;51.378;-1.342;2022-10-23T11:43:50;0;0;
61592;PMS5003;47485;51.378;-1.342;2022-10-23T11:46:28;0;0;
61592;PMS5003;47485;51.378;-1.342;2022-10-23T11:48:56;0;0;
61592;PMS5003;47485;51.378;-1.342;2022-10-23T11:51:26;2;0;
61592;PMS5003;47485;51.378;-1.342;2022-10-23T11:54:04;0;0;
61592;PMS5003;47485;51.378;-1.342;2022-10-23T11:56:33;0;0;
61592;PMS5003;47485;51.378;-1.342;2022-10-23T11:59:17;1;0;
61592;PMS5003;47485;51.378;-1.342;2022-10-23T12:01:48;1;0;
61592;PMS5003;47485;51.378;-1.342;2022-10-23T12:04:19;0;0;
61592;PMS5003;47485;51.378;-1.342;2022-10-23T12:06:50;1;0;
61592;PMS5003;47485;51.378;-1.342;2022-10-23T12:09:24;1;0;
61592;PMS5003;47485;51.378;-1.342;2022-10-23T12:12:03;0;0;
61592;PMS5003;47485;51.378;-1.342;2022-10-23T12:14:42;0;0;
61592;PMS5003;47485;51.378;-1.342;2022-10-23T12:17:23;0;0;
61592;PMS5003;47485;51.378;-1.342;2022-10-23T12:20:00;1;1;
61592;PMS5003;47485;51.378;-1.342;2022-10-23T12:22:41;0;0;
61592;PMS5003;47485;51.378;-1.342;2022-10-23T12:25:19;1;0;
61592;PMS5003;47485;51.378;-1.342;2022-10-23T12:27:57;0;0;
61592;PMS5003;47485;51.378;-1.342;2022-10-23T12:30:32;2;0;
61592;PMS5003;47485;51.378;-1.342;2022-10-23T12:33:12;2;0;
61592;PMS5003;47485;51.378;-1.342;2022-10-23T12:35:52;1;1;
61592;PMS5003;47485;51.378;-1.342;2022-10-23T12:38:40;0;0;
61592;PMS5003;47485;51.378;-1.342;2022-10-23T12:41:11;0;0;
61592;PMS5003;47485;51.378;-1.342;2022-10-23T12:43:41;0;0;
61592;PMS5003;47485;51.378;-1.342;2022-10-23T12:46:23;0;0;
61592;PMS5003;47485;51.378;-1.342;2022-10-23T12:48:56;0;0;
61592;PMS5003;47485;51.378;-1.342;2022-10-23T12:51:26;1;0;
61592;PMS5003;47485;51.378;-1.342;2022-10-23T12:53:55;1;1;
61592;PMS5003;47485;51.378;-1.342;2022-10-23T12:56:23;0;0;
61592;PMS5003;47485;51.378;-1.342;2022-10-23T12:58:51;0;0;
61592;PMS5003;47485;51.378;-1.342;2022-10-23T13:01:22;0;0;
61592;PMS5003;47485;51.378;-1.342;2022-10-23T13:03:51;0;0;
61592;PMS5003;47485;51.378;-1.342;2022-10-23T13:06:23;0;0;
61592;PMS5003;47485;51.378;-1.342;2022-10-23T13:08:50;0;0;
61592;PMS5003;47485;51.378;-1.342;2022-10-23T13:11:19;0;0;
61592;PMS5003;47485;51.378;-1.342;2022-10-23T13:13:46;1;0;
61592;PMS5003;47485;51.378;-1.342;2022-10-23T13:16:15;0;0;
61592;PMS5003;47485;51.378;-1.342;2022-10-23T13:18:43;0;0;
61592;PMS5003;47485;51.378;-1.342;2022-10-23T13:21:15;1;1;
61592;PMS5003;47485;51.378;-1.342;2022-10-23T13:23:44;1;1;
61592;PMS5003;47485;51.378;-1.342;2022-10-23T13:26:29;0;0;
61592;PMS5003;47485;51.378;-1.342;2022-10-23T13:28:58;0;0;
61592;PMS5003;47485;51.378;-1.342;2022-10-23T13:31:28;2;1;
61592;PMS5003;47485;51.378;-1.342;2022-10-23T13:34:15;2;2;
61592;PMS5003;47485;51.378;-1.342;2022-10-23T13:36:49;0;0;
61592;PMS5003;47485;51.378;-1.342;2022-10-23T13:39:21;0;0;
61592;PMS5003;47485;51.378;-1.342;2022-10-23T13:41:50;0;0;
61592;PMS5003;47485;51.378;-1.342;2022-10-23T13:44:18;0;0;
61592;PMS5003;47485;51.378;-1.342;2022-10-23T13:46:47;0;0;
61592;PMS5003;47485;51.378;-1.342;2022-10-23T13:49:15;0;0;
61592;PMS5003;47485;51.378;-1.342;2022-10-23T13:51:44;0;0;
61592;PMS5003;47485;51.378;-1.342;2022-10-23T13:54:16;0;0;
61592;PMS5003;47485;51.378;-1.342;2022-10-23T13:56:45;1;0;
61592;PMS5003;47485;51.378;-1.342;2022-10-23T13:59:13;1;0;
61592;PMS5003;47485;51.378;-1.342;2022-10-23T14:01:42;1;0;
61592;PMS5003;47485;51.378;-1.342;2022-10-23T14:04:11;0;0;
61592;PMS5003;47485;51.378;-1.342;2022-10-23T14:06:39;0;0;
61592;PMS5003;47485;51.378;-1.342;2022-10-23T14:09:07;0;0;
61592;PMS5003;47485;51.378;-1.342;2022-10-23T14:11:36;2;2;
61592;PMS5003;47485;51.378;-1.342;2022-10-23T14:14:03;1;1;
61592;PMS5003;47485;51.378;-1.342;2022-10-23T14:16:30;1;0;
61592;PMS5003;47485;51.378;-1.342;2022-10-23T14:18:57;2;0;
61592;PMS5003;47485;51.378;-1.342;2022-10-23T14:21:23;0;0;
61592;PMS5003;47485;51.378;-1.342;2022-10-23T14:23:55;1;0;
61592;PMS5003;47485;51.378;-1.342;2022-10-23T14:26:23;0;0;
61592;PMS5003;47485;51.378;-1.342;2022-10-23T14:28:51;0;0;
61592;PMS5003;47485;51.378;-1.342;2022-10-23T14:31:19;0;0;
61592;PMS5003;47485;51.378;-1.342;2022-10-23T14:33:49;0;0;
61592;PMS5003;47485;51.378;-1.342;2022-10-23T14:36:17;1;0;
61592;PMS5003;47485;51.378;-1.342;2022-10-23T14:38:44;1;1;
61592;PMS5003;47485;51.378;-1.342;2022-10-23T14:41:12;0;0;
61592;PMS5003;47485;51.378;-1.342;2022-10-23T14:43:41;0;0;
61592;PMS5003;47485;51.378;-1.342;2022-10-23T14:46:08;0;0;
61592;PMS5003;47485;51.378;-1.342;2022-10-23T14:48:36;0;0;
61592;PMS5003;47485;51.378;-1.342;2022-10-23T14:51:04;0;0;
61592;PMS5003;47485;51.378;-1.342;2022-10-23T14:53:32;2;0;
61592;PMS5003;47485;51.378;-1.342;2022-10-23T14:55:59;1;1;
61592;PMS5003;47485;51.378;-1.342;2022-10-23T14:58:27;0;0;
61592;PMS5003;47485;51.378;-1.342;2022-10-23T15:00:57;0;0;
61592;PMS5003;47485;51.378;-1.342;2022-10-23T15:03:24;1;1;
61592;PMS5003;47485;51.378;-1.342;2022-10-23T15:05:51;1;1;
61592;PMS5003;47485;51.378;-1.342;2022-10-23T15:08:17;1;1;
61592;PMS5003;47485;51.378;-1.342;2022-10-23T15:10:45;4;1;
61592;PMS5003;47485;51.378;-1.342;2022-10-23T15:13:12;1;1;
61592;PMS5003;47485;51.378;-1.342;2022-10-23T15:15:44;3;1;
61592;PMS5003;47485;51.378;-1.342;2022-10-23T15:18:12;2;1;
61592;PMS5003;47485;51.378;-1.342;2022-10-23T15:20:39;1;1;
61592;PMS5003;47485;51.378;-1.342;2022-10-23T15:23:05;1;1;
61592;PMS5003;47485;51.378;-1.342;2022-10-23T15:25:32;3;1;
61592;PMS5003;47485;51.378;-1.342;2022-10-23T15:27:59;1;1;
61592;PMS5003;47485;51.378;-1.342;2022-10-23T15:30:25;0;0;
61592;PMS5003;47485;51.378;-1.342;2022-10-23T15:32:52;3;1;
61592;PMS5003;47485;51.378;-1.342;2022-10-23T15:35:19;1;1;
61592;PMS5003;47485;51.378;-1.342;2022-10-23T15:37:46;1;1;
61592;PMS5003;47485;51.378;-1.342;2022-10-23T15:40:13;1;1;
61592;PMS5003;47485;51.378;-1.342;2022-10-23T15:42:41;1;1;
61592;PMS5003;47485;51.378;-1.342;2022-10-23T15:45:08;4;3;
61592;PMS5003;47485;51.378;-1.342;2022-10-23T15:47:38;3;2;
61592;PMS5003;47485;51.378;-1.342;2022-10-23T15:50:05;0;0;
61592;PMS5003;47485;51.378;-1.342;2022-10-23T15:52:33;0;0;
61592;PMS5003;47485;51.378;-1.342;2022-10-23T15:54:59;0;0;
61592;PMS5003;47485;51.378;-1.342;2022-10-23T15:57:26;0;0;
61592;PMS5003;47485;51.378;-1.342;2022-10-23T15:59:53;0;0;
61592;PMS5003;47485;51.378;-1.342;2022-10-23T16:02:20;0;0;
61592;PMS5003;47485;51.378;-1.342;2022-10-23T16:04:47;0;0;
61592;PMS5003;47485;51.378;-1.342;2022-10-23T16:07:14;0;0;
61592;PMS5003;47485;51.378;-1.342;2022-10-23T16:09:46;1;0;
61592;PMS5003;47485;51.378;-1.342;2022-10-23T16:12:13;0;0;
61592;PMS5003;47485;51.378;-1.342;2022-10-23T16:14:39;0;0;
61592;PMS5003;47485;51.378;-1.342;2022-10-23T16:17:06;1;1;
61592;PMS5003;47485;51.378;-1.342;2022-10-23T16:19:33;0;0;
61592;PMS5003;47485;51.378;-1.342;2022-10-23T16:22:00;0;0;
61592;PMS5003;47485;51.378;-1.342;2022-10-23T16:24:26;2;1;
61592;PMS5003;47485;51.378;-1.342;2022-10-23T16:26:53;0;0;
61592;PMS5003;47485;51.378;-1.342;2022-10-23T16:29:20;0;0;
61592;PMS5003;47485;51.378;-1.342;2022-10-23T16:31:52;0;0;
61592;PMS5003;47485;51.378;-1.342;2022-10-23T16:34:19;0;0;
61592;PMS5003;47485;51.378;-1.342;2022-10-23T16:36:46;0;0;
61592;PMS5003;47485;51.378;-1.342;2022-10-23T16:39:14;1;1;
61592;PMS5003;47485;51.378;-1.342;2022-10-23T16:41:43;0;0;
61592;PMS5003;47485;51.378;-1.342;2022-10-23T16:44:10;0;0;
61592;PMS5003;47485;51.378;-1.342;2022-10-23T16:46:37;0;0;
61592;PMS5003;47485;51.378;-1.342;2022-10-23T16:49:04;0;0;
61592;PMS5003;47485;51.378;-1.342;2022-10-23T16:51:31;0;0;